Arlington, Minnesota
Current Conditions -  °F | °C
As of 11:55 AM on Wednesday 28 Jan 2015 (Local Time) from KGYL Reporting Station
Haze Haze  
Wind Chill: 22°   Ceiling: 800
Heat Index: 32°   Visibility: 3mi
Dew Point: 30°   Wind: 14mph
Humidity: 93%   Direction: 130°SE
Pressure: 29.86"   Gusts: NA
Location:  44.61°N, 94.08°W
Report Text: KGYL 281755Z AUTO 13012KT 3SM BR OVC008 00/M01 A2986 RMK AO2 T00001010 10000 21002
Loading
Personal Weather Stations






























Interactive Weather Map New forecast layout! Learn more

10-Day Weather Forecast

Advertisements
Track Severe Weather on mobile